Time,TemperatureF,DewpointF,PressureIn,WindDirection,WindDirectionDegrees,WindSpeedMPH,WindSpeedGustMPH,Humidity,HourlyPrecipIn,Conditions,Clouds,dailyrainin,SoftwareType,DateUTC
2013-11-03 00:03:00,24.0,24.0,-100.00,North,5,0.0,0.0,97,-99.99,,,-99.99,,2013-11-03 05:03:00,
2013-11-03 00:10:00,23.0,22.0,-100.00,SSE,165,0.0,0.0,98,-99.99,,,-99.99,,2013-11-03 05:10:00,
2013-11-03 00:43:00,23.0,22.0,-100.00,SSE,165,0.0,0.0,98,-99.99,,,-99.99,,2013-11-03 05:43:00,
2013-11-03 00:53:00,23.0,22.0,-100.00,SSE,165,0.0,0.0,98,-99.99,,,-99.99,,2013-11-03 05:53:00,
2013-11-03 01:03:00,23.0,22.0,-100.00,SSE,165,0.0,0.0,98,-99.99,,,-99.99,,2013-11-03 06:03:00,
2013-11-03 04:42:00,28.0,28.0,-100.00,SE,130,2.0,12.0,99,-99.99,,,-99.99,,2013-11-03 10:42:00,
2013-11-03 04:53:00,28.0,28.0,-100.00,SE,130,2.0,12.0,99,-99.99,,,-99.99,,2013-11-03 10:53:00,
2013-11-03 05:02:00,28.0,28.0,-100.00,SE,130,2.0,12.0,99,-99.99,,,-99.99,,2013-11-03 11:02:00,
2013-11-03 05:12:00,28.0,28.0,-100.00,SE,130,2.0,12.0,99,-99.99,,,-99.99,,2013-11-03 11:12:00,
2013-11-03 05:43:00,31.0,31.0,-100.00,SSE,165,2.0,9.0,99,-99.99,,,-99.99,,2013-11-03 11:43:00,
2013-11-03 05:52:00,31.0,31.0,-100.00,SSE,165,2.0,9.0,99,-99.99,,,-99.99,,2013-11-03 11:52:00,
2013-11-03 06:02:00,31.0,31.0,-100.00,SSE,165,2.0,9.0,99,-99.99,,,-99.99,,2013-11-03 12:02:00,
2013-11-03 07:11:00,32.0,31.0,-100.00,SE,145,7.0,13.0,94,-99.99,,,-99.99,,2013-11-03 13:11:00,
2013-11-03 07:42:00,32.0,31.0,-100.00,SE,145,7.0,13.0,94,-99.99,,,-99.99,,2013-11-03 13:42:00,
2013-11-03 07:52:00,32.0,31.0,-100.00,SE,145,7.0,13.0,94,-99.99,,,-99.99,,2013-11-03 13:52:00,
2013-11-03 08:02:00,32.0,31.0,-100.00,SE,145,7.0,13.0,94,-99.99,,,-99.99,,2013-11-03 14:02:00,
2013-11-03 09:11:00,36.0,32.0,-100.00,SE,125,4.0,9.0,83,-99.99,,,-99.99,,2013-11-03 15:11:00,
2013-11-03 09:43:00,36.0,32.0,-100.00,SE,125,4.0,9.0,83,-99.99,,,-99.99,,2013-11-03 15:43:00,
2013-11-03 09:53:00,36.0,32.0,-100.00,SE,125,4.0,9.0,83,-99.99,,,-99.99,,2013-11-03 15:53:00,
2013-11-03 10:03:00,36.0,32.0,-100.00,SE,125,4.0,9.0,83,-99.99,,,-99.99,,2013-11-03 16:03:00,
2013-11-03 10:11:00,39.0,30.0,-100.00,SSE,155,6.0,12.0,69,-99.99,,,-99.99,,2013-11-03 16:11:00,
2013-11-03 10:43:00,39.0,30.0,-100.00,SSE,155,6.0,12.0,69,-99.99,,,-99.99,,2013-11-03 16:43:00,
2013-11-03 10:53:00,39.0,30.0,-100.00,SSE,155,6.0,12.0,69,-99.99,,,-99.99,,2013-11-03 16:53:00,
2013-11-03 11:03:00,39.0,30.0,-100.00,SSE,155,6.0,12.0,69,-99.99,,,-99.99,,2013-11-03 17:03:00,
2013-11-03 13:11:00,47.0,27.0,-100.00,ESE,115,7.0,18.0,45,-99.99,,,-99.99,,2013-11-03 19:11:00,
2013-11-03 13:42:00,47.0,27.0,-100.00,ESE,115,7.0,18.0,45,-99.99,,,-99.99,,2013-11-03 19:42:00,
2013-11-03 13:53:00,47.0,27.0,-100.00,ESE,115,7.0,18.0,45,-99.99,,,-99.99,,2013-11-03 19:53:00,
2013-11-03 14:01:00,47.0,27.0,-100.00,ESE,115,7.0,18.0,45,-99.99,,,-99.99,,2013-11-03 20:01:00,
2013-11-03 14:10:00,46.0,27.0,-100.00,SSE,165,9.0,16.0,46,-99.99,,,-99.99,,2013-11-03 20:10:00,
2013-11-03 14:42:00,46.0,27.0,-100.00,SSE,165,9.0,16.0,46,-99.99,,,-99.99,,2013-11-03 20:42:00,
2013-11-03 14:52:00,46.0,27.0,-100.00,SSE,165,9.0,16.0,46,-99.99,,,-99.99,,2013-11-03 20:52:00,
2013-11-03 15:02:00,46.0,27.0,-100.00,SSE,165,9.0,16.0,46,-99.99,,,-99.99,,2013-11-03 21:02:00,
2013-11-03 16:10:00,44.0,27.0,-100.00,SSE,150,6.0,21.0,50,-99.99,,,-99.99,,2013-11-03 22:10:00,
2013-11-03 16:43:00,44.0,27.0,-100.00,SSE,150,6.0,21.0,50,-99.99,,,-99.99,,2013-11-03 22:43:00,
2013-11-03 16:52:00,44.0,27.0,-100.00,SSE,150,6.0,21.0,50,-99.99,,,-99.99,,2013-11-03 22:52:00,
2013-11-03 17:02:00,44.0,27.0,-100.00,SSE,150,6.0,21.0,50,-99.99,,,-99.99,,2013-11-03 23:02:00,
2013-11-03 18:42:00,42.0,28.0,-100.00,SSE,165,9.0,21.0,56,-99.99,,,-99.99,,2013-11-04 00:42:00,
2013-11-03 18:52:00,42.0,28.0,-100.00,SSE,165,9.0,21.0,56,-99.99,,,-99.99,,2013-11-04 00:52:00,
2013-11-03 19:02:00,42.0,28.0,-100.00,SSE,165,9.0,21.0,56,-99.99,,,-99.99,,2013-11-04 01:02:00,
2013-11-03 19:12:00,42.0,28.0,-100.00,SSE,160,11.0,17.0,56,-99.99,,,-99.99,,2013-11-04 01:12:00,
2013-11-03 19:42:00,42.0,28.0,-100.00,SSE,160,11.0,17.0,56,-99.99,,,-99.99,,2013-11-04 01:42:00,
2013-11-03 19:52:00,42.0,28.0,-100.00,SSE,160,11.0,17.0,56,-99.99,,,-99.99,,2013-11-04 01:52:00,
2013-11-03 20:02:00,42.0,28.0,-100.00,SSE,160,11.0,17.0,56,-99.99,,,-99.99,,2013-11-04 02:02:00,
2013-11-03 20:10:00,42.0,28.0,-100.00,SSE,165,7.0,21.0,57,-99.99,,,-99.99,,2013-11-04 02:10:00,
2013-11-03 20:42:00,42.0,28.0,-100.00,SSE,165,7.0,21.0,57,-99.99,,,-99.99,,2013-11-04 02:42:00,
2013-11-03 20:53:00,42.0,28.0,-100.00,SSE,165,7.0,21.0,57,-99.99,,,-99.99,,2013-11-04 02:53:00,
2013-11-03 21:02:00,42.0,28.0,-100.00,SSE,165,7.0,21.0,57,-99.99,,,-99.99,,2013-11-04 03:02:00,
2013-11-03 21:12:00,43.0,28.0,-100.00,SSE,150,7.0,16.0,56,-99.99,,,-99.99,,2013-11-04 03:12:00,
2013-11-03 21:44:00,43.0,28.0,-100.00,SSE,150,7.0,16.0,56,-99.99,,,-99.99,,2013-11-04 03:44:00,
2013-11-03 21:54:00,43.0,28.0,-100.00,SSE,150,7.0,16.0,56,-99.99,,,-99.99,,2013-11-04 03:54:00,
2013-11-03 22:04:00,43.0,28.0,-100.00,SSE,150,7.0,16.0,56,-99.99,,,-99.99,,2013-11-04 04:04:00,